sensor_id;sensor_type;location;lat;lon;timestamp;pressure;altitude;pressure_sealevel;temperature
24639;BMP180;1641;51.306;12.384;2023-02-01T00:01:23;99961.00;;;5.90
24639;BMP180;1641;51.306;12.384;2023-02-01T00:03:49;99980.00;;;6.00
24639;BMP180;1641;51.306;12.384;2023-02-01T00:06:14;99993.00;;;5.90
24639;BMP180;1641;51.306;12.384;2023-02-01T00:08:39;99999.00;;;5.70
24639;BMP180;1641;51.306;12.384;2023-02-01T00:11:07;99972.00;;;5.60
24639;BMP180;1641;51.306;12.384;2023-02-01T00:13:35;99993.00;;;5.50
24639;BMP180;1641;51.306;12.384;2023-02-01T00:16:08;99972.00;;;5.60
24639;BMP180;1641;51.306;12.384;2023-02-01T00:18:36;99975.00;;;5.50
24639;BMP180;1641;51.306;12.384;2023-02-01T00:21:01;99996.00;;;5.70
24639;BMP180;1641;51.306;12.384;2023-02-01T00:23:27;99997.00;;;5.60
24639;BMP180;1641;51.306;12.384;2023-02-01T00:25:52;99994.00;;;5.60
24639;BMP180;1641;51.306;12.384;2023-02-01T00:28:17;99989.00;;;5.50
24639;BMP180;1641;51.306;12.384;2023-02-01T00:30:42;99983.00;;;5.70
24639;BMP180;1641;51.306;12.384;2023-02-01T00:33:08;99990.00;;;5.60
24639;BMP180;1641;51.306;12.384;2023-02-01T00:35:34;99988.00;;;5.50
24639;BMP180;1641;51.306;12.384;2023-02-01T00:37:59;99997.00;;;5.70
24639;BMP180;1641;51.306;12.384;2023-02-01T00:40:25;99981.00;;;5.80
24639;BMP180;1641;51.306;12.384;2023-02-01T00:42:51;100000.00;;;6.00
24639;BMP180;1641;51.306;12.384;2023-02-01T00:45:17;99987.00;;;6.10
24639;BMP180;1641;51.306;12.384;2023-02-01T00:47:42;99984.00;;;5.90
24639;BMP180;1641;51.306;12.384;2023-02-01T00:50:08;99994.00;;;6.00
24639;BMP180;1641;51.306;12.384;2023-02-01T00:52:33;100006.00;;;6.30
24639;BMP180;1641;51.306;12.384;2023-02-01T00:54:59;100008.00;;;5.90
24639;BMP180;1641;51.306;12.384;2023-02-01T00:57:24;99988.00;;;5.90
24639;BMP180;1641;51.306;12.384;2023-02-01T00:59:49;99998.00;;;5.80
24639;BMP180;1641;51.306;12.384;2023-02-01T01:02:14;100008.00;;;5.70
24639;BMP180;1641;51.306;12.384;2023-02-01T01:04:40;99972.00;;;5.80
24639;BMP180;1641;51.306;12.384;2023-02-01T01:07:05;100010.00;;;5.60
24639;BMP180;1641;51.306;12.384;2023-02-01T01:09:30;100003.00;;;5.30
24639;BMP180;1641;51.306;12.384;2023-02-01T01:11:56;100014.00;;;5.70
24639;BMP180;1641;51.306;12.384;2023-02-01T01:14:21;99977.00;;;5.70
24639;BMP180;1641;51.306;12.384;2023-02-01T01:16:46;100013.00;;;6.00
24639;BMP180;1641;51.306;12.384;2023-02-01T01:19:12;100009.00;;;5.90
24639;BMP180;1641;51.306;12.384;2023-02-01T01:21:37;100005.00;;;5.80
24639;BMP180;1641;51.306;12.384;2023-02-01T01:24:03;100001.00;;;5.80
24639;BMP180;1641;51.306;12.384;2023-02-01T01:26:29;100009.00;;;6.00
24639;BMP180;1641;51.306;12.384;2023-02-01T01:28:56;100006.00;;;5.90
24639;BMP180;1641;51.306;12.384;2023-02-01T01:31:21;100004.00;;;5.90
24639;BMP180;1641;51.306;12.384;2023-02-01T01:33:49;99927.00;;;5.90
24639;BMP180;1641;51.306;12.384;2023-02-01T01:36:15;100008.00;;;5.90
24639;BMP180;1641;51.306;12.384;2023-02-01T01:38:41;99993.00;;;5.70
24639;BMP180;1641;51.306;12.384;2023-02-01T01:41:08;99998.00;;;5.70
24639;BMP180;1641;51.306;12.384;2023-02-01T01:43:58;99995.00;;;5.80
24639;BMP180;1641;51.306;12.384;2023-02-01T01:46:49;99985.00;;;5.80
24639;BMP180;1641;51.306;12.384;2023-02-01T01:49:20;99986.00;;;5.90
24639;BMP180;1641;51.306;12.384;2023-02-01T01:51:56;99973.00;;;6.00
24639;BMP180;1641;51.306;12.384;2023-02-01T01:54:34;99976.00;;;5.70
24639;BMP180;1641;51.306;12.384;2023-02-01T01:57:07;99968.00;;;5.60
24639;BMP180;1641;51.306;12.384;2023-02-01T01:59:35;99973.00;;;5.80
24639;BMP180;1641;51.306;12.384;2023-02-01T02:02:02;99966.00;;;5.90
24639;BMP180;1641;51.306;12.384;2023-02-01T02:04:28;99958.00;;;5.80
24639;BMP180;1641;51.306;12.384;2023-02-01T02:06:59;99955.00;;;6.00
24639;BMP180;1641;51.306;12.384;2023-02-01T02:09:25;99949.00;;;5.50
24639;BMP180;1641;51.306;12.384;2023-02-01T02:11:51;99957.00;;;5.70
24639;BMP180;1641;51.306;12.384;2023-02-01T02:14:18;99945.00;;;5.60
24639;BMP180;1641;51.306;12.384;2023-02-01T02:17:12;99944.00;;;5.60
24639;BMP180;1641;51.306;12.384;2023-02-01T02:19:50;99927.00;;;5.80
24639;BMP180;1641;51.306;12.384;2023-02-01T02:22:44;99933.00;;;5.90
24639;BMP180;1641;51.306;12.384;2023-02-01T02:28:20;99942.00;;;6.00
24639;BMP180;1641;51.306;12.384;2023-02-01T02:31:19;99941.00;;;5.90
24639;BMP180;1641;51.306;12.384;2023-02-01T02:37:03;99933.00;;;6.00
24639;BMP180;1641;51.306;12.384;2023-02-01T02:39:54;99929.00;;;6.00
24639;BMP180;1641;51.306;12.384;2023-02-01T02:42:29;99925.00;;;6.20
24639;BMP180;1641;51.306;12.384;2023-02-01T02:45:31;99927.00;;;6.30
24639;BMP180;1641;51.306;12.384;2023-02-01T02:48:30;99922.00;;;6.40
24639;BMP180;1641;51.306;12.384;2023-02-01T02:51:06;99922.00;;;6.30
24639;BMP180;1641;51.306;12.384;2023-02-01T02:53:59;99902.00;;;6.20
24639;BMP180;1641;51.306;12.384;2023-02-01T02:56:44;99933.00;;;6.20
24639;BMP180;1641;51.306;12.384;2023-02-01T02:59:29;99926.00;;;5.90
24639;BMP180;1641;51.306;12.384;2023-02-01T03:02:15;99944.00;;;5.80
24639;BMP180;1641;51.306;12.384;2023-02-01T03:04:59;99937.00;;;6.10
24639;BMP180;1641;51.306;12.384;2023-02-01T03:10:17;99924.00;;;5.90
24639;BMP180;1641;51.306;12.384;2023-02-01T03:12:47;99923.00;;;6.10
24639;BMP180;1641;51.306;12.384;2023-02-01T03:15:48;99930.00;;;5.80
24639;BMP180;1641;51.306;12.384;2023-02-01T03:18:21;99932.00;;;6.10
24639;BMP180;1641;51.306;12.384;2023-02-01T03:20:51;99917.00;;;5.90
24639;BMP180;1641;51.306;12.384;2023-02-01T03:23:20;99928.00;;;6.20
24639;BMP180;1641;51.306;12.384;2023-02-01T03:25:47;99918.00;;;6.00
24639;BMP180;1641;51.306;12.384;2023-02-01T03:28:15;99915.00;;;6.10
24639;BMP180;1641;51.306;12.384;2023-02-01T03:30:44;99917.00;;;6.00
24639;BMP180;1641;51.306;12.384;2023-02-01T03:33:14;99914.00;;;5.90
24639;BMP180;1641;51.306;12.384;2023-02-01T03:35:56;99902.00;;;6.00
24639;BMP180;1641;51.306;12.384;2023-02-01T03:41:34;99904.00;;;6.20
24639;BMP180;1641;51.306;12.384;2023-02-01T03:44:20;99892.00;;;6.20
24639;BMP180;1641;51.306;12.384;2023-02-01T03:46:54;99882.00;;;5.90
24639;BMP180;1641;51.306;12.384;2023-02-01T03:49:43;99890.00;;;5.80
24639;BMP180;1641;51.306;12.384;2023-02-01T03:52:13;99898.00;;;5.80
24639;BMP180;1641;51.306;12.384;2023-02-01T03:54:40;99900.00;;;6.10
24639;BMP180;1641;51.306;12.384;2023-02-01T03:57:14;99903.00;;;6.20
24639;BMP180;1641;51.306;12.384;2023-02-01T03:59:45;99890.00;;;6.10
24639;BMP180;1641;51.306;12.384;2023-02-01T04:02:10;99877.00;;;5.90
24639;BMP180;1641;51.306;12.384;2023-02-01T04:04:36;99872.00;;;6.00
24639;BMP180;1641;51.306;12.384;2023-02-01T04:07:02;99845.00;;;6.30
24639;BMP180;1641;51.306;12.384;2023-02-01T04:09:27;99868.00;;;6.20
24639;BMP180;1641;51.306;12.384;2023-02-01T04:11:52;99887.00;;;6.20
24639;BMP180;1641;51.306;12.384;2023-02-01T04:14:18;99881.00;;;6.00
24639;BMP180;1641;51.306;12.384;2023-02-01T04:16:43;99826.00;;;6.10
24639;BMP180;1641;51.306;12.384;2023-02-01T04:19:11;99877.00;;;6.30
24639;BMP180;1641;51.306;12.384;2023-02-01T04:21:37;99858.00;;;6.40
24639;BMP180;1641;51.306;12.384;2023-02-01T04:24:02;99862.00;;;6.40
24639;BMP180;1641;51.306;12.384;2023-02-01T04:26:28;99870.00;;;6.50
24639;BMP180;1641;51.306;12.384;2023-02-01T04:28:53;99859.00;;;6.50
24639;BMP180;1641;51.306;12.384;2023-02-01T04:31:19;99824.00;;;6.50
24639;BMP180;1641;51.306;12.384;2023-02-01T04:33:53;99836.00;;;6.30
24639;BMP180;1641;51.306;12.384;2023-02-01T04:36:22;99840.00;;;6.40
24639;BMP180;1641;51.306;12.384;2023-02-01T04:38:49;99857.00;;;6.40
24639;BMP180;1641;51.306;12.384;2023-02-01T04:41:18;99850.00;;;6.00
24639;BMP180;1641;51.306;12.384;2023-02-01T04:43:48;99841.00;;;6.10
24639;BMP180;1641;51.306;12.384;2023-02-01T04:46:14;99844.00;;;6.00
24639;BMP180;1641;51.306;12.384;2023-02-01T04:48:39;99840.00;;;6.20
24639;BMP180;1641;51.306;12.384;2023-02-01T04:51:04;99830.00;;;6.60
24639;BMP180;1641;51.306;12.384;2023-02-01T04:53:30;99831.00;;;6.50
24639;BMP180;1641;51.306;12.384;2023-02-01T04:55:55;99832.00;;;6.30
24639;BMP180;1641;51.306;12.384;2023-02-01T04:58:21;99824.00;;;6.40
24639;BMP180;1641;51.306;12.384;2023-02-01T05:00:49;99828.00;;;6.30
24639;BMP180;1641;51.306;12.384;2023-02-01T05:03:15;99835.00;;;6.40
24639;BMP180;1641;51.306;12.384;2023-02-01T05:05:41;99823.00;;;6.40
24639;BMP180;1641;51.306;12.384;2023-02-01T05:08:06;99828.00;;;6.40
24639;BMP180;1641;51.306;12.384;2023-02-01T05:10:31;99806.00;;;6.40
24639;BMP180;1641;51.306;12.384;2023-02-01T05:12:57;99827.00;;;6.10
24639;BMP180;1641;51.306;12.384;2023-02-01T05:15:40;99813.00;;;6.30
24639;BMP180;1641;51.306;12.384;2023-02-01T05:18:06;99822.00;;;6.20
24639;BMP180;1641;51.306;12.384;2023-02-01T05:20:31;99806.00;;;5.90
24639;BMP180;1641;51.306;12.384;2023-02-01T05:22:56;99820.00;;;5.80
24639;BMP180;1641;51.306;12.384;2023-02-01T05:25:22;99811.00;;;5.90
24639;BMP180;1641;51.306;12.384;2023-02-01T05:27:47;99812.00;;;6.00
24639;BMP180;1641;51.306;12.384;2023-02-01T05:30:13;99811.00;;;6.10
24639;BMP180;1641;51.306;12.384;2023-02-01T05:32:41;99812.00;;;6.40
24639;BMP180;1641;51.306;12.384;2023-02-01T05:35:09;99806.00;;;6.10
24639;BMP180;1641;51.306;12.384;2023-02-01T05:37:35;99786.00;;;6.10
24639;BMP180;1641;51.306;12.384;2023-02-01T05:40:00;99822.00;;;6.10
24639;BMP180;1641;51.306;12.384;2023-02-01T05:42:25;99801.00;;;6.10
24639;BMP180;1641;51.306;12.384;2023-02-01T05:44:57;99807.00;;;6.00
24639;BMP180;1641;51.306;12.384;2023-02-01T05:47:22;99819.00;;;5.80
24639;BMP180;1641;51.306;12.384;2023-02-01T05:49:47;99807.00;;;6.20
24639;BMP180;1641;51.306;12.384;2023-02-01T05:52:12;99805.00;;;6.20
24639;BMP180;1641;51.306;12.384;2023-02-01T05:54:38;99807.00;;;6.00
24639;BMP180;1641;51.306;12.384;2023-02-01T05:57:03;99770.00;;;6.20
24639;BMP180;1641;51.306;12.384;2023-02-01T05:59:28;99800.00;;;6.20
24639;BMP180;1641;51.306;12.384;2023-02-01T06:01:54;99801.00;;;6.20
24639;BMP180;1641;51.306;12.384;2023-02-01T06:04:19;99808.00;;;6.40
24639;BMP180;1641;51.306;12.384;2023-02-01T06:06:44;99804.00;;;6.40
24639;BMP180;1641;51.306;12.384;2023-02-01T06:09:10;99796.00;;;6.20
24639;BMP180;1641;51.306;12.384;2023-02-01T06:11:39;99726.00;;;6.40
24639;BMP180;1641;51.306;12.384;2023-02-01T06:14:05;99799.00;;;6.30
24639;BMP180;1641;51.306;12.384;2023-02-01T06:16:38;99788.00;;;6.40
24639;BMP180;1641;51.306;12.384;2023-02-01T06:19:04;99801.00;;;6.30
24639;BMP180;1641;51.306;12.384;2023-02-01T06:21:29;99786.00;;;6.40
24639;BMP180;1641;51.306;12.384;2023-02-01T06:24:00;99804.00;;;5.90
24639;BMP180;1641;51.306;12.384;2023-02-01T06:26:26;99792.00;;;6.00
24639;BMP180;1641;51.306;12.384;2023-02-01T06:28:59;99781.00;;;6.00
24639;BMP180;1641;51.306;12.384;2023-02-01T06:31:25;99768.00;;;6.10
24639;BMP180;1641;51.306;12.384;2023-02-01T06:33:51;99780.00;;;6.30
24639;BMP180;1641;51.306;12.384;2023-02-01T06:36:16;99775.00;;;6.30
24639;BMP180;1641;51.306;12.384;2023-02-01T06:38:44;99780.00;;;6.30
24639;BMP180;1641;51.306;12.384;2023-02-01T06:41:09;99782.00;;;6.40
24639;BMP180;1641;51.306;12.384;2023-02-01T06:43:34;99783.00;;;6.30
24639;BMP180;1641;51.306;12.384;2023-02-01T06:46:06;99769.00;;;6.50
24639;BMP180;1641;51.306;12.384;2023-02-01T06:48:32;99780.00;;;6.20
24639;BMP180;1641;51.306;12.384;2023-02-01T06:50:57;99763.00;;;6.50
24639;BMP180;1641;51.306;12.384;2023-02-01T06:53:29;99766.00;;;6.20
24639;BMP180;1641;51.306;12.384;2023-02-01T06:55:59;99779.00;;;6.40
24639;BMP180;1641;51.306;12.384;2023-02-01T06:58:29;99759.00;;;6.40
24639;BMP180;1641;51.306;12.384;2023-02-01T07:00:55;99782.00;;;6.40
24639;BMP180;1641;51.306;12.384;2023-02-01T07:03:20;99771.00;;;6.40
24639;BMP180;1641;51.306;12.384;2023-02-01T07:05:45;99742.00;;;6.60
24639;BMP180;1641;51.306;12.384;2023-02-01T07:08:11;99771.00;;;6.70
24639;BMP180;1641;51.306;12.384;2023-02-01T07:10:36;99770.00;;;6.10
24639;BMP180;1641;51.306;12.384;2023-02-01T07:13:02;99770.00;;;6.30
24639;BMP180;1641;51.306;12.384;2023-02-01T07:15:27;99748.00;;;6.50
24639;BMP180;1641;51.306;12.384;2023-02-01T07:17:55;99749.00;;;6.60
24639;BMP180;1641;51.306;12.384;2023-02-01T07:20:21;99753.00;;;7.10
24639;BMP180;1641;51.306;12.384;2023-02-01T07:22:46;99750.00;;;7.20
24639;BMP180;1641;51.306;12.384;2023-02-01T07:25:11;99755.00;;;6.90
24639;BMP180;1641;51.306;12.384;2023-02-01T07:27:37;99715.00;;;6.60
24639;BMP180;1641;51.306;12.384;2023-02-01T07:30:06;99756.00;;;6.60
24639;BMP180;1641;51.306;12.384;2023-02-01T07:32:32;99727.00;;;6.70
24639;BMP180;1641;51.306;12.384;2023-02-01T07:34:57;99750.00;;;7.10
24639;BMP180;1641;51.306;12.384;2023-02-01T07:37:23;99745.00;;;7.00
24639;BMP180;1641;51.306;12.384;2023-02-01T07:39:49;99756.00;;;6.90
24639;BMP180;1641;51.306;12.384;2023-02-01T07:42:15;99746.00;;;7.10
24639;BMP180;1641;51.306;12.384;2023-02-01T07:44:40;99737.00;;;6.70
24639;BMP180;1641;51.306;12.384;2023-02-01T07:47:05;99754.00;;;6.70
24639;BMP180;1641;51.306;12.384;2023-02-01T07:49:31;99733.00;;;6.50
24639;BMP180;1641;51.306;12.384;2023-02-01T07:51:56;99746.00;;;6.80
24639;BMP180;1641;51.306;12.384;2023-02-01T07:54:21;99717.00;;;6.60
24639;BMP180;1641;51.306;12.384;2023-02-01T07:56:46;99735.00;;;7.00
24639;BMP180;1641;51.306;12.384;2023-02-01T07:59:11;99744.00;;;7.00
24639;BMP180;1641;51.306;12.384;2023-02-01T08:01:37;99749.00;;;6.90
24639;BMP180;1641;51.306;12.384;2023-02-01T08:04:03;99753.00;;;6.70
24639;BMP180;1641;51.306;12.384;2023-02-01T08:06:31;99754.00;;;7.00
24639;BMP180;1641;51.306;12.384;2023-02-01T08:08:57;99730.00;;;6.80
24639;BMP180;1641;51.306;12.384;2023-02-01T08:11:24;99761.00;;;6.30
24639;BMP180;1641;51.306;12.384;2023-02-01T08:13:49;99750.00;;;6.60
24639;BMP180;1641;51.306;12.384;2023-02-01T08:16:16;99762.00;;;6.40
24639;BMP180;1641;51.306;12.384;2023-02-01T08:18:42;99746.00;;;6.60
24639;BMP180;1641;51.306;12.384;2023-02-01T08:21:10;99753.00;;;6.40
24639;BMP180;1641;51.306;12.384;2023-02-01T08:23:36;99762.00;;;6.60
24639;BMP180;1641;51.306;12.384;2023-02-01T08:26:06;99747.00;;;6.60
24639;BMP180;1641;51.306;12.384;2023-02-01T08:28:31;99747.00;;;6.40
24639;BMP180;1641;51.306;12.384;2023-02-01T08:30:56;99751.00;;;6.40
24639;BMP180;1641;51.306;12.384;2023-02-01T08:33:21;99757.00;;;6.10
24639;BMP180;1641;51.306;12.384;2023-02-01T08:35:47;99764.00;;;6.50
24639;BMP180;1641;51.306;12.384;2023-02-01T08:38:12;99712.00;;;6.30
24639;BMP180;1641;51.306;12.384;2023-02-01T08:40:37;99761.00;;;5.90
24639;BMP180;1641;51.306;12.384;2023-02-01T08:43:02;99768.00;;;6.40
24639;BMP180;1641;51.306;12.384;2023-02-01T08:45:29;99770.00;;;6.10
24639;BMP180;1641;51.306;12.384;2023-02-01T08:47:55;99766.00;;;6.20
24639;BMP180;1641;51.306;12.384;2023-02-01T08:50:22;99768.00;;;6.00
24639;BMP180;1641;51.306;12.384;2023-02-01T08:52:47;99772.00;;;6.20
24639;BMP180;1641;51.306;12.384;2023-02-01T08:55:13;99743.00;;;6.00
24639;BMP180;1641;51.306;12.384;2023-02-01T08:57:39;99769.00;;;5.60
24639;BMP180;1641;51.306;12.384;2023-02-01T09:00:08;99782.00;;;5.80
24639;BMP180;1641;51.306;12.384;2023-02-01T09:02:35;99762.00;;;5.60
24639;BMP180;1641;51.306;12.384;2023-02-01T09:05:00;99776.00;;;5.30
24639;BMP180;1641;51.306;12.384;2023-02-01T09:07:25;99760.00;;;5.30
24639;BMP180;1641;51.306;12.384;2023-02-01T09:09:50;99773.00;;;5.50
24639;BMP180;1641;51.306;12.384;2023-02-01T09:12:16;99779.00;;;5.70
24639;BMP180;1641;51.306;12.384;2023-02-01T09:14:41;99776.00;;;5.60
24639;BMP180;1641;51.306;12.384;2023-02-01T09:17:07;99780.00;;;5.50
24639;BMP180;1641;51.306;12.384;2023-02-01T09:19:32;99753.00;;;5.30
24639;BMP180;1641;51.306;12.384;2023-02-01T09:21:57;99786.00;;;5.60
24639;BMP180;1641;51.306;12.384;2023-02-01T09:24:23;99767.00;;;5.40
24639;BMP180;1641;51.306;12.384;2023-02-01T09:26:48;99789.00;;;5.90
24639;BMP180;1641;51.306;12.384;2023-02-01T09:29:14;99762.00;;;5.60
24639;BMP180;1641;51.306;12.384;2023-02-01T09:31:40;99801.00;;;5.60
24639;BMP180;1641;51.306;12.384;2023-02-01T09:34:06;99800.00;;;5.90
24639;BMP180;1641;51.306;12.384;2023-02-01T09:36:31;99809.00;;;6.00
24639;BMP180;1641;51.306;12.384;2023-02-01T09:39:06;99801.00;;;5.70
24639;BMP180;1641;51.306;12.384;2023-02-01T09:42:01;99798.00;;;5.90
24639;BMP180;1641;51.306;12.384;2023-02-01T09:46:58;99782.00;;;6.10
24639;BMP180;1641;51.306;12.384;2023-02-01T09:49:32;99799.00;;;6.50
24639;BMP180;1641;51.306;12.384;2023-02-01T09:52:05;99817.00;;;6.60
24639;BMP180;1641;51.306;12.384;2023-02-01T09:54:44;99802.00;;;6.40
24639;BMP180;1641;51.306;12.384;2023-02-01T10:03:37;99810.00;;;6.10
24639;BMP180;1641;51.306;12.384;2023-02-01T10:15:18;99811.00;;;6.80
24639;BMP180;1641;51.306;12.384;2023-02-01T10:20:52;99808.00;;;7.20
24639;BMP180;1641;51.306;12.384;2023-02-01T10:23:41;99808.00;;;7.20
24639;BMP180;1641;51.306;12.384;2023-02-01T10:26:26;99811.00;;;7.50
24639;BMP180;1641;51.306;12.384;2023-02-01T10:29:03;99807.00;;;7.30
24639;BMP180;1641;51.306;12.384;2023-02-01T10:31:31;99811.00;;;7.00
24639;BMP180;1641;51.306;12.384;2023-02-01T10:34:01;99805.00;;;7.10
24639;BMP180;1641;51.306;12.384;2023-02-01T10:36:40;99818.00;;;7.30
24639;BMP180;1641;51.306;12.384;2023-02-01T10:39:06;99796.00;;;7.40
24639;BMP180;1641;51.306;12.384;2023-02-01T10:41:39;99806.00;;;8.20
24639;BMP180;1641;51.306;12.384;2023-02-01T10:44:18;99822.00;;;7.80
24639;BMP180;1641;51.306;12.384;2023-02-01T10:46:45;99812.00;;;8.10
24639;BMP180;1641;51.306;12.384;2023-02-01T10:49:18;99800.00;;;7.90
24639;BMP180;1641;51.306;12.384;2023-02-01T10:51:54;99808.00;;;8.30
24639;BMP180;1641;51.306;12.384;2023-02-01T10:54:35;99802.00;;;7.80
24639;BMP180;1641;51.306;12.384;2023-02-01T10:57:07;99783.00;;;7.60
24639;BMP180;1641;51.306;12.384;2023-02-01T10:59:33;99782.00;;;7.60
24639;BMP180;1641;51.306;12.384;2023-02-01T11:02:16;99787.00;;;7.70
24639;BMP180;1641;51.306;12.384;2023-02-01T11:04:43;99782.00;;;7.90
24639;BMP180;1641;51.306;12.384;2023-02-01T11:07:20;99772.00;;;8.10
24639;BMP180;1641;51.306;12.384;2023-02-01T11:09:50;99796.00;;;8.70
24639;BMP180;1641;51.306;12.384;2023-02-01T11:12:29;99741.00;;;8.20
24639;BMP180;1641;51.306;12.384;2023-02-01T11:15:15;99790.00;;;8.40
24639;BMP180;1641;51.306;12.384;2023-02-01T11:17:45;99790.00;;;8.50
24639;BMP180;1641;51.306;12.384;2023-02-01T11:22:56;99794.00;;;8.20
24639;BMP180;1641;51.306;12.384;2023-02-01T11:25:28;99781.00;;;8.20
24639;BMP180;1641;51.306;12.384;2023-02-01T11:27:56;99759.00;;;8.00
24639;BMP180;1641;51.306;12.384;2023-02-01T11:30:42;99795.00;;;8.10
24639;BMP180;1641;51.306;12.384;2023-02-01T11:33:15;99756.00;;;8.30
24639;BMP180;1641;51.306;12.384;2023-02-01T11:35:44;99782.00;;;8.80
24639;BMP180;1641;51.306;12.384;2023-02-01T11:38:32;99795.00;;;8.80
24639;BMP180;1641;51.306;12.384;2023-02-01T11:41:14;99775.00;;;8.50
24639;BMP180;1641;51.306;12.384;2023-02-01T11:44:00;99781.00;;;8.20
24639;BMP180;1641;51.306;12.384;2023-02-01T11:46:32;99800.00;;;8.70
24639;BMP180;1641;51.306;12.384;2023-02-01T11:49:20;99788.00;;;8.40
24639;BMP180;1641;51.306;12.384;2023-02-01T11:52:02;99794.00;;;8.60
24639;BMP180;1641;51.306;12.384;2023-02-01T11:57:20;99782.00;;;8.90
24639;BMP180;1641;51.306;12.384;2023-02-01T12:05:27;99774.00;;;9.20
24639;BMP180;1641;51.306;12.384;2023-02-01T12:10:47;99788.00;;;8.70
24639;BMP180;1641;51.306;12.384;2023-02-01T12:13:47;99730.00;;;8.40
24639;BMP180;1641;51.306;12.384;2023-02-01T12:21:34;99764.00;;;8.90
24639;BMP180;1641;51.306;12.384;2023-02-01T12:24:16;99761.00;;;8.50
24639;BMP180;1641;51.306;12.384;2023-02-01T12:26:51;99755.00;;;8.50
24639;BMP180;1641;51.306;12.384;2023-02-01T12:32:02;99728.00;;;8.20
24639;BMP180;1641;51.306;12.384;2023-02-01T12:35:02;99675.00;;;8.80
24639;BMP180;1641;51.306;12.384;2023-02-01T12:38:12;99735.00;;;8.70
24639;BMP180;1641;51.306;12.384;2023-02-01T12:41:07;99721.00;;;8.70
24639;BMP180;1641;51.306;12.384;2023-02-01T12:43:49;99738.00;;;8.70
24639;BMP180;1641;51.306;12.384;2023-02-01T12:46:21;99707.00;;;8.50
24639;BMP180;1641;51.306;12.384;2023-02-01T12:48:58;99722.00;;;8.60
24639;BMP180;1641;51.306;12.384;2023-02-01T12:51:29;99685.00;;;8.50
24639;BMP180;1641;51.306;12.384;2023-02-01T12:54:18;99699.00;;;8.70
24639;BMP180;1641;51.306;12.384;2023-02-01T12:56:56;99711.00;;;8.70
24639;BMP180;1641;51.306;12.384;2023-02-01T12:59:28;99707.00;;;8.80
24639;BMP180;1641;51.306;12.384;2023-02-01T13:04:53;99707.00;;;8.70
24639;BMP180;1641;51.306;12.384;2023-02-01T13:07:30;99697.00;;;9.00
24639;BMP180;1641;51.306;12.384;2023-02-01T13:10:23;99694.00;;;8.70
24639;BMP180;1641;51.306;12.384;2023-02-01T13:13:14;99709.00;;;8.50
24639;BMP180;1641;51.306;12.384;2023-02-01T13:15:43;99681.00;;;8.30
24639;BMP180;1641;51.306;12.384;2023-02-01T13:18:14;99696.00;;;8.30
24639;BMP180;1641;51.306;12.384;2023-02-01T13:20:54;99690.00;;;8.60
24639;BMP180;1641;51.306;12.384;2023-02-01T13:23:29;99677.00;;;8.30
24639;BMP180;1641;51.306;12.384;2023-02-01T13:25:55;99692.00;;;8.20
24639;BMP180;1641;51.306;12.384;2023-02-01T13:37:21;99680.00;;;8.10
24639;BMP180;1641;51.306;12.384;2023-02-01T13:42:56;99684.00;;;8.30
24639;BMP180;1641;51.306;12.384;2023-02-01T13:45:31;99680.00;;;8.60
24639;BMP180;1641;51.306;12.384;2023-02-01T13:48:00;99662.00;;;8.80
24639;BMP180;1641;51.306;12.384;2023-02-01T13:50:30;99680.00;;;8.40
24639;BMP180;1641;51.306;12.384;2023-02-01T13:55:38;99674.00;;;8.80
24639;BMP180;1641;51.306;12.384;2023-02-01T13:58:09;99669.00;;;8.60
24639;BMP180;1641;51.306;12.384;2023-02-01T14:00:38;99662.00;;;8.70
24639;BMP180;1641;51.306;12.384;2023-02-01T14:03:10;99666.00;;;8.70
24639;BMP180;1641;51.306;12.384;2023-02-01T14:10:50;99655.00;;;8.90
24639;BMP180;1641;51.306;12.384;2023-02-01T14:23:45;99652.00;;;8.50
24639;BMP180;1641;51.306;12.384;2023-02-01T14:26:17;99631.00;;;8.40
24639;BMP180;1641;51.306;12.384;2023-02-01T14:29:32;99624.00;;;8.30
24639;BMP180;1641;51.306;12.384;2023-02-01T14:35:01;99608.00;;;8.40
24639;BMP180;1641;51.306;12.384;2023-02-01T14:42:45;99608.00;;;8.70
24639;BMP180;1641;51.306;12.384;2023-02-01T14:47:42;99596.00;;;8.40
24639;BMP180;1641;51.306;12.384;2023-02-01T14:50:17;99590.00;;;8.40
24639;BMP180;1641;51.306;12.384;2023-02-01T14:58:52;99589.00;;;8.40
24639;BMP180;1641;51.306;12.384;2023-02-01T15:01:31;99591.00;;;8.40
24639;BMP180;1641;51.306;12.384;2023-02-01T15:04:08;99578.00;;;8.10
24639;BMP180;1641;51.306;12.384;2023-02-01T15:07:04;99589.00;;;8.20
24639;BMP180;1641;51.306;12.384;2023-02-01T15:09:35;99566.00;;;8.20
24639;BMP180;1641;51.306;12.384;2023-02-01T15:12:03;99590.00;;;8.20
24639;BMP180;1641;51.306;12.384;2023-02-01T15:14:37;99603.00;;;7.70
24639;BMP180;1641;51.306;12.384;2023-02-01T15:17:18;99573.00;;;7.60
24639;BMP180;1641;51.306;12.384;2023-02-01T15:19:58;99584.00;;;7.60
24639;BMP180;1641;51.306;12.384;2023-02-01T15:22:24;99568.00;;;7.50
24639;BMP180;1641;51.306;12.384;2023-02-01T15:24:54;99567.00;;;7.60
24639;BMP180;1641;51.306;12.384;2023-02-01T15:27:20;99556.00;;;7.30
24639;BMP180;1641;51.306;12.384;2023-02-01T15:29:46;99557.00;;;7.30
24639;BMP180;1641;51.306;12.384;2023-02-01T15:32:32;99534.00;;;7.70
24639;BMP180;1641;51.306;12.384;2023-02-01T15:34:58;99546.00;;;7.60
24639;BMP180;1641;51.306;12.384;2023-02-01T15:37:26;99514.00;;;7.50
24639;BMP180;1641;51.306;12.384;2023-02-01T15:42:36;99525.00;;;7.20
24639;BMP180;1641;51.306;12.384;2023-02-01T15:45:17;99474.00;;;7.20
24639;BMP180;1641;51.306;12.384;2023-02-01T15:47:47;99532.00;;;7.30
24639;BMP180;1641;51.306;12.384;2023-02-01T15:50:15;99535.00;;;7.60
24639;BMP180;1641;51.306;12.384;2023-02-01T15:52:41;99535.00;;;7.50
24639;BMP180;1641;51.306;12.384;2023-02-01T15:57:43;99482.00;;;7.50
24639;BMP180;1641;51.306;12.384;2023-02-01T16:00:30;99534.00;;;7.40
24639;BMP180;1641;51.306;12.384;2023-02-01T16:02:58;99564.00;;;7.30
24639;BMP180;1641;51.306;12.384;2023-02-01T16:05:35;99610.00;;;7.00
24639;BMP180;1641;51.306;12.384;2023-02-01T16:08:09;99667.00;;;5.60
24639;BMP180;1641;51.306;12.384;2023-02-01T16:10:43;99684.00;;;4.40
24639;BMP180;1641;51.306;12.384;2023-02-01T16:13:09;99715.00;;;4.00
24639;BMP180;1641;51.306;12.384;2023-02-01T16:15:34;99726.00;;;3.90
24639;BMP180;1641;51.306;12.384;2023-02-01T16:18:00;99689.00;;;3.70
24639;BMP180;1641;51.306;12.384;2023-02-01T16:20:25;99693.00;;;3.90
24639;BMP180;1641;51.306;12.384;2023-02-01T16:22:50;99693.00;;;4.10
24639;BMP180;1641;51.306;12.384;2023-02-01T16:25:16;99632.00;;;3.90
24639;BMP180;1641;51.306;12.384;2023-02-01T16:27:41;99674.00;;;3.90
24639;BMP180;1641;51.306;12.384;2023-02-01T16:30:07;99596.00;;;3.90
24639;BMP180;1641;51.306;12.384;2023-02-01T16:32:35;99645.00;;;4.10